sensor_id;sensor_type;location;lat;lon;timestamp;P1;durP1;ratioP1;P2;durP2;ratioP2
43142;SDS011;28750;59.842;17.584;2023-07-02T09:11:58;2.42;;;2.22;;
43142;SDS011;28750;59.842;17.584;2023-07-02T09:17:06;7.47;;;2.70;;
43142;SDS011;28750;59.842;17.584;2023-07-02T09:19:36;2.92;;;2.45;;
43142;SDS011;28750;59.842;17.584;2023-07-02T09:22:15;3.58;;;3.00;;
43142;SDS011;28750;59.842;17.584;2023-07-02T09:24:50;3.05;;;2.45;;
43142;SDS011;28750;59.842;17.584;2023-07-02T09:27:19;3.53;;;3.22;;
43142;SDS011;28750;59.842;17.584;2023-07-02T09:29:50;5.00;;;3.25;;
43142;SDS011;28750;59.842;17.584;2023-07-02T09:32:25;2.55;;;2.35;;
43142;SDS011;28750;59.842;17.584;2023-07-02T09:34:54;2.28;;;2.17;;
43142;SDS011;28750;59.842;17.584;2023-07-02T09:37:22;2.72;;;2.50;;
43142;SDS011;28750;59.842;17.584;2023-07-02T09:39:52;3.03;;;2.72;;
43142;SDS011;28750;59.842;17.584;2023-07-02T09:42:21;2.88;;;2.67;;
43142;SDS011;28750;59.842;17.584;2023-07-02T09:44:51;4.57;;;2.60;;
43142;SDS011;28750;59.842;17.584;2023-07-02T09:47:21;3.75;;;3.00;;
43142;SDS011;28750;59.842;17.584;2023-07-02T09:49:52;4.13;;;2.55;;
43142;SDS011;28750;59.842;17.584;2023-07-02T09:52:26;3.00;;;2.80;;
43142;SDS011;28750;59.842;17.584;2023-07-02T09:54:53;3.63;;;2.40;;
43142;SDS011;28750;59.842;17.584;2023-07-02T09:57:21;3.72;;;2.70;;
43142;SDS011;28750;59.842;17.584;2023-07-02T09:59:48;3.05;;;2.55;;
43142;SDS011;28750;59.842;17.584;2023-07-02T10:02:16;3.38;;;2.92;;
43142;SDS011;28750;59.842;17.584;2023-07-02T10:04:44;3.25;;;2.42;;
43142;SDS011;28750;59.842;17.584;2023-07-02T10:07:13;3.03;;;2.83;;
43142;SDS011;28750;59.842;17.584;2023-07-02T10:09:56;3.25;;;2.45;;
43142;SDS011;28750;59.842;17.584;2023-07-02T10:12:26;3.40;;;3.10;;
43142;SDS011;28750;59.842;17.584;2023-07-02T10:14:55;6.38;;;2.45;;
43142;SDS011;28750;59.842;17.584;2023-07-02T10:17:25;3.90;;;3.03;;
43142;SDS011;28750;59.842;17.584;2023-07-02T10:20:00;5.85;;;3.30;;
43142;SDS011;28750;59.842;17.584;2023-07-02T10:22:42;8.75;;;3.67;;
43142;SDS011;28750;59.842;17.584;2023-07-02T10:25:10;8.13;;;3.95;;
43142;SDS011;28750;59.842;17.584;2023-07-02T10:27:40;10.27;;;3.63;;
43142;SDS011;28750;59.842;17.584;2023-07-02T10:30:09;6.60;;;3.90;;
43142;SDS011;28750;59.842;17.584;2023-07-02T10:32:37;5.43;;;4.18;;
43142;SDS011;28750;59.842;17.584;2023-07-02T10:35:17;9.38;;;3.65;;
43142;SDS011;28750;59.842;17.584;2023-07-02T10:37:45;6.10;;;3.70;;
43142;SDS011;28750;59.842;17.584;2023-07-02T10:40:12;6.28;;;3.78;;
43142;SDS011;28750;59.842;17.584;2023-07-02T10:42:49;5.75;;;4.03;;
43142;SDS011;28750;59.842;17.584;2023-07-02T10:45:18;10.25;;;3.72;;
43142;SDS011;28750;59.842;17.584;2023-07-02T10:47:46;9.27;;;4.60;;
43142;SDS011;28750;59.842;17.584;2023-07-02T10:50:14;5.18;;;3.80;;
43142;SDS011;28750;59.842;17.584;2023-07-02T10:52:46;6.45;;;4.20;;
43142;SDS011;28750;59.842;17.584;2023-07-02T10:55:22;6.28;;;4.32;;
43142;SDS011;28750;59.842;17.584;2023-07-02T10:58:01;9.57;;;4.30;;
43142;SDS011;28750;59.842;17.584;2023-07-02T11:00:30;6.75;;;4.15;;
43142;SDS011;28750;59.842;17.584;2023-07-02T11:02:58;9.38;;;5.53;;
43142;SDS011;28750;59.842;17.584;2023-07-02T11:05:26;9.65;;;4.85;;
43142;SDS011;28750;59.842;17.584;2023-07-02T11:07:53;5.80;;;4.40;;
43142;SDS011;28750;59.842;17.584;2023-07-02T11:10:22;5.20;;;4.07;;
43142;SDS011;28750;59.842;17.584;2023-07-02T11:12:51;5.03;;;3.60;;
43142;SDS011;28750;59.842;17.584;2023-07-02T11:15:19;10.13;;;4.47;;
43142;SDS011;28750;59.842;17.584;2023-07-02T11:17:46;7.30;;;4.18;;
43142;SDS011;28750;59.842;17.584;2023-07-02T11:20:14;5.95;;;4.25;;
43142;SDS011;28750;59.842;17.584;2023-07-02T11:22:41;10.98;;;5.00;;
43142;SDS011;28750;59.842;17.584;2023-07-02T11:27:43;5.82;;;4.00;;
43142;SDS011;28750;59.842;17.584;2023-07-02T11:30:11;7.45;;;3.90;;
43142;SDS011;28750;59.842;17.584;2023-07-02T11:32:48;4.38;;;3.97;;
43142;SDS011;28750;59.842;17.584;2023-07-02T11:35:20;5.93;;;3.90;;
43142;SDS011;28750;59.842;17.584;2023-07-02T11:37:48;8.65;;;4.50;;
43142;SDS011;28750;59.842;17.584;2023-07-02T11:40:18;7.93;;;4.35;;
43142;SDS011;28750;59.842;17.584;2023-07-02T11:42:46;6.97;;;4.43;;
43142;SDS011;28750;59.842;17.584;2023-07-02T11:45:13;5.28;;;4.00;;
43142;SDS011;28750;59.842;17.584;2023-07-02T11:47:40;5.78;;;4.03;;
43142;SDS011;28750;59.842;17.584;2023-07-02T11:50:08;5.43;;;3.58;;
43142;SDS011;28750;59.842;17.584;2023-07-02T11:52:37;4.53;;;3.80;;
43142;SDS011;28750;59.842;17.584;2023-07-02T11:55:04;4.38;;;3.63;;
43142;SDS011;28750;59.842;17.584;2023-07-02T11:57:32;4.82;;;4.32;;
43142;SDS011;28750;59.842;17.584;2023-07-02T11:59:59;4.22;;;3.80;;
43142;SDS011;28750;59.842;17.584;2023-07-02T12:02:26;5.63;;;3.83;;
43142;SDS011;28750;59.842;17.584;2023-07-02T12:04:53;4.75;;;3.95;;
43142;SDS011;28750;59.842;17.584;2023-07-02T12:07:20;6.00;;;3.55;;
43142;SDS011;28750;59.842;17.584;2023-07-02T12:09:48;5.65;;;4.38;;
43142;SDS011;28750;59.842;17.584;2023-07-02T12:12:15;8.05;;;4.05;;
43142;SDS011;28750;59.842;17.584;2023-07-02T12:14:42;5.95;;;4.15;;
43142;SDS011;28750;59.842;17.584;2023-07-02T12:17:10;11.90;;;4.22;;
43142;SDS011;28750;59.842;17.584;2023-07-02T12:19:38;6.63;;;4.80;;
43142;SDS011;28750;59.842;17.584;2023-07-02T12:22:06;10.48;;;5.13;;
43142;SDS011;28750;59.842;17.584;2023-07-02T12:24:33;17.33;;;4.25;;
43142;SDS011;28750;59.842;17.584;2023-07-02T12:27:02;10.38;;;3.35;;
43142;SDS011;28750;59.842;17.584;2023-07-02T12:29:29;9.23;;;3.50;;
43142;SDS011;28750;59.842;17.584;2023-07-02T12:31:56;4.57;;;3.20;;
43142;SDS011;28750;59.842;17.584;2023-07-02T12:34:23;6.90;;;3.50;;
43142;SDS011;28750;59.842;17.584;2023-07-02T12:36:52;4.80;;;3.15;;
43142;SDS011;28750;59.842;17.584;2023-07-02T12:39:19;2.83;;;2.63;;
43142;SDS011;28750;59.842;17.584;2023-07-02T12:41:46;3.47;;;3.17;;
43142;SDS011;28750;59.842;17.584;2023-07-02T12:44:13;4.97;;;4.47;;
43142;SDS011;28750;59.842;17.584;2023-07-02T12:46:41;6.38;;;4.25;;
43142;SDS011;28750;59.842;17.584;2023-07-02T12:49:08;6.25;;;4.80;;
43142;SDS011;28750;59.842;17.584;2023-07-02T12:51:35;6.68;;;5.65;;
43142;SDS011;28750;59.842;17.584;2023-07-02T12:54:03;7.85;;;5.72;;
43142;SDS011;28750;59.842;17.584;2023-07-02T12:56:30;8.52;;;6.38;;
43142;SDS011;28750;59.842;17.584;2023-07-02T12:58:57;12.90;;;6.82;;
43142;SDS011;28750;59.842;17.584;2023-07-02T13:01:24;8.85;;;6.43;;
43142;SDS011;28750;59.842;17.584;2023-07-02T13:03:52;7.93;;;6.25;;
43142;SDS011;28750;59.842;17.584;2023-07-02T13:06:19;11.45;;;6.85;;
43142;SDS011;28750;59.842;17.584;2023-07-02T13:08:46;7.82;;;6.10;;
43142;SDS011;28750;59.842;17.584;2023-07-02T13:11:13;8.75;;;6.63;;
43142;SDS011;28750;59.842;17.584;2023-07-02T13:13:41;7.97;;;5.80;;
43142;SDS011;28750;59.842;17.584;2023-07-02T13:16:08;7.78;;;6.32;;
43142;SDS011;28750;59.842;17.584;2023-07-02T13:18:35;7.43;;;6.00;;
43142;SDS011;28750;59.842;17.584;2023-07-02T13:21:02;8.43;;;6.28;;
43142;SDS011;28750;59.842;17.584;2023-07-02T13:23:29;8.65;;;6.72;;
43142;SDS011;28750;59.842;17.584;2023-07-02T13:25:56;7.22;;;6.30;;
43142;SDS011;28750;59.842;17.584;2023-07-02T13:28:24;7.57;;;6.45;;
43142;SDS011;28750;59.842;17.584;2023-07-02T13:30:53;7.95;;;6.20;;
43142;SDS011;28750;59.842;17.584;2023-07-02T13:33:20;6.88;;;5.95;;
43142;SDS011;28750;59.842;17.584;2023-07-02T13:35:47;9.95;;;6.32;;
43142;SDS011;28750;59.842;17.584;2023-07-02T13:38:15;6.70;;;5.97;;
43142;SDS011;28750;59.842;17.584;2023-07-02T13:40:42;10.23;;;6.78;;
43142;SDS011;28750;59.842;17.584;2023-07-02T13:43:10;7.45;;;6.43;;
43142;SDS011;28750;59.842;17.584;2023-07-02T13:45:37;8.45;;;5.88;;
43142;SDS011;28750;59.842;17.584;2023-07-02T13:48:04;6.63;;;5.57;;
43142;SDS011;28750;59.842;17.584;2023-07-02T13:50:32;6.60;;;5.82;;
43142;SDS011;28750;59.842;17.584;2023-07-02T13:52:59;6.38;;;5.72;;
43142;SDS011;28750;59.842;17.584;2023-07-02T13:55:26;8.73;;;6.30;;
43142;SDS011;28750;59.842;17.584;2023-07-02T13:57:55;8.57;;;7.03;;
43142;SDS011;28750;59.842;17.584;2023-07-02T14:00:25;7.68;;;5.75;;
43142;SDS011;28750;59.842;17.584;2023-07-02T14:05:22;7.40;;;5.97;;
43142;SDS011;28750;59.842;17.584;2023-07-02T14:07:50;6.22;;;5.45;;
43142;SDS011;28750;59.842;17.584;2023-07-02T14:10:18;7.03;;;5.75;;
43142;SDS011;28750;59.842;17.584;2023-07-02T14:12:45;5.70;;;5.07;;
43142;SDS011;28750;59.842;17.584;2023-07-02T14:15:13;7.25;;;5.60;;
43142;SDS011;28750;59.842;17.584;2023-07-02T14:17:40;6.03;;;5.43;;
43142;SDS011;28750;59.842;17.584;2023-07-02T14:20:08;7.40;;;4.43;;
43142;SDS011;28750;59.842;17.584;2023-07-02T14:22:36;7.63;;;5.53;;
43142;SDS011;28750;59.842;17.584;2023-07-02T14:25:03;6.13;;;5.22;;
43142;SDS011;28750;59.842;17.584;2023-07-02T14:27:31;5.05;;;4.45;;
43142;SDS011;28750;59.842;17.584;2023-07-02T14:29:58;5.45;;;4.18;;
43142;SDS011;28750;59.842;17.584;2023-07-02T14:32:26;4.70;;;4.28;;
43142;SDS011;28750;59.842;17.584;2023-07-02T14:34:53;6.03;;;4.93;;
43142;SDS011;28750;59.842;17.584;2023-07-02T14:37:20;8.77;;;5.25;;
43142;SDS011;28750;59.842;17.584;2023-07-02T14:39:47;6.30;;;5.60;;
43142;SDS011;28750;59.842;17.584;2023-07-02T14:42:15;5.20;;;4.70;;
43142;SDS011;28750;59.842;17.584;2023-07-02T14:44:42;5.10;;;4.60;;
43142;SDS011;28750;59.842;17.584;2023-07-02T14:47:09;5.30;;;4.47;;
43142;SDS011;28750;59.842;17.584;2023-07-02T14:49:36;5.43;;;4.05;;
43142;SDS011;28750;59.842;17.584;2023-07-02T14:52:04;5.78;;;4.72;;
43142;SDS011;28750;59.842;17.584;2023-07-02T14:54:33;5.70;;;4.05;;
43142;SDS011;28750;59.842;17.584;2023-07-02T14:57:01;5.05;;;3.65;;
43142;SDS011;28750;59.842;17.584;2023-07-02T14:59:28;5.57;;;3.88;;
43142;SDS011;28750;59.842;17.584;2023-07-02T15:01:55;5.65;;;3.67;;
43142;SDS011;28750;59.842;17.584;2023-07-02T15:04:22;5.10;;;3.58;;
43142;SDS011;28750;59.842;17.584;2023-07-02T15:06:49;6.85;;;4.15;;
43142;SDS011;28750;59.842;17.584;2023-07-02T15:09:17;5.20;;;4.28;;
43142;SDS011;28750;59.842;17.584;2023-07-02T15:11:44;4.45;;;3.85;;
43142;SDS011;28750;59.842;17.584;2023-07-02T15:14:11;4.82;;;4.18;;
43142;SDS011;28750;59.842;17.584;2023-07-02T15:16:39;4.68;;;3.72;;
43142;SDS011;28750;59.842;17.584;2023-07-02T15:19:06;6.70;;;5.10;;
43142;SDS011;28750;59.842;17.584;2023-07-02T15:21:33;5.82;;;4.28;;
43142;SDS011;28750;59.842;17.584;2023-07-02T15:24:00;5.32;;;3.88;;
43142;SDS011;28750;59.842;17.584;2023-07-02T15:26:27;5.40;;;4.55;;
43142;SDS011;28750;59.842;17.584;2023-07-02T15:28:54;4.47;;;4.07;;
43142;SDS011;28750;59.842;17.584;2023-07-02T15:31:22;5.75;;;4.40;;
43142;SDS011;28750;59.842;17.584;2023-07-02T15:33:49;4.80;;;4.13;;
43142;SDS011;28750;59.842;17.584;2023-07-02T15:36:16;4.40;;;4.00;;
43142;SDS011;28750;59.842;17.584;2023-07-02T15:38:43;5.35;;;4.28;;
43142;SDS011;28750;59.842;17.584;2023-07-02T15:41:12;5.53;;;4.15;;
43142;SDS011;28750;59.842;17.584;2023-07-02T15:43:42;6.70;;;4.38;;
43142;SDS011;28750;59.842;17.584;2023-07-02T15:46:11;4.03;;;3.53;;
43142;SDS011;28750;59.842;17.584;2023-07-02T15:48:40;4.57;;;4.18;;
43142;SDS011;28750;59.842;17.584;2023-07-02T15:51:08;5.28;;;3.70;;
43142;SDS011;28750;59.842;17.584;2023-07-02T15:53:36;4.43;;;3.65;;
43142;SDS011;28750;59.842;17.584;2023-07-02T15:56:06;3.80;;;3.15;;
43142;SDS011;28750;59.842;17.584;2023-07-02T15:58:33;4.00;;;2.50;;
43142;SDS011;28750;59.842;17.584;2023-07-02T16:01:11;2.45;;;2.13;;
43142;SDS011;28750;59.842;17.584;2023-07-02T16:03:43;2.50;;;2.30;;
43142;SDS011;28750;59.842;17.584;2023-07-02T16:06:10;1.83;;;1.73;;
43142;SDS011;28750;59.842;17.584;2023-07-02T16:08:39;2.40;;;1.80;;
43142;SDS011;28750;59.842;17.584;2023-07-02T16:11:07;1.83;;;1.45;;
43142;SDS011;28750;59.842;17.584;2023-07-02T16:13:36;1.98;;;1.38;;
43142;SDS011;28750;59.842;17.584;2023-07-02T16:16:04;3.33;;;1.20;;
43142;SDS011;28750;59.842;17.584;2023-07-02T16:18:32;1.33;;;1.20;;
43142;SDS011;28750;59.842;17.584;2023-07-02T16:21:01;2.67;;;1.10;;
43142;SDS011;28750;59.842;17.584;2023-07-02T16:23:29;2.58;;;1.23;;
43142;SDS011;28750;59.842;17.584;2023-07-02T16:26:00;1.23;;;1.00;;
43142;SDS011;28750;59.842;17.584;2023-07-02T16:28:30;2.60;;;1.02;;
43142;SDS011;28750;59.842;17.584;2023-07-02T16:30:59;7.78;;;1.20;;
43142;SDS011;28750;59.842;17.584;2023-07-02T16:33:26;1.38;;;1.05;;
43142;SDS011;28750;59.842;17.584;2023-07-02T16:35:58;2.40;;;1.13;;
43142;SDS011;28750;59.842;17.584;2023-07-02T16:38:25;3.53;;;1.42;;
43142;SDS011;28750;59.842;17.584;2023-07-02T16:40:52;2.67;;;1.90;;
43142;SDS011;28750;59.842;17.584;2023-07-02T16:43:20;2.13;;;1.90;;
43142;SDS011;28750;59.842;17.584;2023-07-02T16:45:53;2.08;;;1.83;;
43142;SDS011;28750;59.842;17.584;2023-07-02T16:48:23;3.97;;;2.30;;
43142;SDS011;28750;59.842;17.584;2023-07-02T16:51:00;3.53;;;2.25;;
43142;SDS011;28750;59.842;17.584;2023-07-02T16:53:29;2.90;;;2.25;;
43142;SDS011;28750;59.842;17.584;2023-07-02T16:55:57;3.47;;;2.63;;
43142;SDS011;28750;59.842;17.584;2023-07-02T16:58:26;5.95;;;2.70;;
43142;SDS011;28750;59.842;17.584;2023-07-02T17:01:02;3.22;;;2.50;;
43142;SDS011;28750;59.842;17.584;2023-07-02T17:03:35;3.70;;;3.03;;
43142;SDS011;28750;59.842;17.584;2023-07-02T17:06:03;5.95;;;3.15;;
43142;SDS011;28750;59.842;17.584;2023-07-02T17:08:36;6.00;;;2.88;;
43142;SDS011;28750;59.842;17.584;2023-07-02T17:11:05;3.50;;;3.20;;
43142;SDS011;28750;59.842;17.584;2023-07-02T17:13:33;5.82;;;3.47;;
43142;SDS011;28750;59.842;17.584;2023-07-02T17:16:01;5.45;;;4.38;;
43142;SDS011;28750;59.842;17.584;2023-07-02T17:18:31;4.35;;;3.95;;
43142;SDS011;28750;59.842;17.584;2023-07-02T17:20:58;6.18;;;4.47;;
43142;SDS011;28750;59.842;17.584;2023-07-02T17:23:26;4.90;;;4.40;;
43142;SDS011;28750;59.842;17.584;2023-07-02T17:25:53;8.88;;;5.07;;
43142;SDS011;28750;59.842;17.584;2023-07-02T17:28:20;6.25;;;4.93;;
43142;SDS011;28750;59.842;17.584;2023-07-02T17:30:48;5.63;;;4.65;;
43142;SDS011;28750;59.842;17.584;2023-07-02T17:33:17;5.32;;;4.82;;
43142;SDS011;28750;59.842;17.584;2023-07-02T17:35:44;6.20;;;5.00;;
43142;SDS011;28750;59.842;17.584;2023-07-02T17:38:11;6.45;;;4.85;;
43142;SDS011;28750;59.842;17.584;2023-07-02T17:40:39;9.68;;;5.25;;
43142;SDS011;28750;59.842;17.584;2023-07-02T17:43:07;6.20;;;5.32;;
43142;SDS011;28750;59.842;17.584;2023-07-02T17:45:35;6.88;;;5.43;;
43142;SDS011;28750;59.842;17.584;2023-07-02T17:48:03;8.90;;;5.13;;
43142;SDS011;28750;59.842;17.584;2023-07-02T17:50:31;7.38;;;5.40;;
43142;SDS011;28750;59.842;17.584;2023-07-02T17:52:58;5.80;;;5.20;;
43142;SDS011;28750;59.842;17.584;2023-07-02T17:55:26;10.38;;;5.15;;
43142;SDS011;28750;59.842;17.584;2023-07-02T17:57:53;5.22;;;4.65;;
43142;SDS011;28750;59.842;17.584;2023-07-02T18:00:21;8.20;;;4.80;;
43142;SDS011;28750;59.842;17.584;2023-07-02T18:02:48;6.10;;;5.22;;
43142;SDS011;28750;59.842;17.584;2023-07-02T18:05:15;7.55;;;4.82;;
43142;SDS011;28750;59.842;17.584;2023-07-02T18:07:45;6.22;;;5.63;;
43142;SDS011;28750;59.842;17.584;2023-07-02T18:10:14;5.47;;;4.90;;
43142;SDS011;28750;59.842;17.584;2023-07-02T18:12:41;5.93;;;5.13;;
43142;SDS011;28750;59.842;17.584;2023-07-02T18:15:08;7.50;;;5.93;;
43142;SDS011;28750;59.842;17.584;2023-07-02T18:17:36;5.60;;;5.05;;
43142;SDS011;28750;59.842;17.584;2023-07-02T18:20:03;8.38;;;5.63;;
43142;SDS011;28750;59.842;17.584;2023-07-02T18:22:30;7.75;;;5.55;;
43142;SDS011;28750;59.842;17.584;2023-07-02T18:24:58;8.55;;;5.03;;
43142;SDS011;28750;59.842;17.584;2023-07-02T18:27:25;7.38;;;5.00;;
43142;SDS011;28750;59.842;17.584;2023-07-02T18:29:52;6.00;;;5.20;;
43142;SDS011;28750;59.842;17.584;2023-07-02T18:32:19;5.47;;;4.78;;
43142;SDS011;28750;59.842;17.584;2023-07-02T18:34:47;6.50;;;5.82;;
43142;SDS011;28750;59.842;17.584;2023-07-02T18:37:14;8.75;;;6.20;;
43142;SDS011;28750;59.842;17.584;2023-07-02T18:39:41;8.25;;;6.85;;
43142;SDS011;28750;59.842;17.584;2023-07-02T18:42:09;7.43;;;5.85;;
43142;SDS011;28750;59.842;17.584;2023-07-02T18:44:37;6.95;;;5.57;;
43142;SDS011;28750;59.842;17.584;2023-07-02T18:47:06;8.80;;;5.53;;
43142;SDS011;28750;59.842;17.584;2023-07-02T18:49:35;7.13;;;5.40;;
43142;SDS011;28750;59.842;17.584;2023-07-02T18:52:11;6.68;;;5.68;;
43142;SDS011;28750;59.842;17.584;2023-07-02T18:54:39;8.63;;;5.78;;
43142;SDS011;28750;59.842;17.584;2023-07-02T18:57:07;7.22;;;5.72;;
43142;SDS011;28750;59.842;17.584;2023-07-02T18:59:36;6.70;;;5.57;;
43142;SDS011;28750;59.842;17.584;2023-07-02T19:02:04;9.82;;;7.13;;
43142;SDS011;28750;59.842;17.584;2023-07-02T19:04:32;6.28;;;5.68;;
43142;SDS011;28750;59.842;17.584;2023-07-02T19:07:00;9.23;;;6.60;;
43142;SDS011;28750;59.842;17.584;2023-07-02T19:09:32;5.65;;;4.82;;
43142;SDS011;28750;59.842;17.584;2023-07-02T19:12:01;8.17;;;5.83;;
43142;SDS011;28750;59.842;17.584;2023-07-02T19:14:29;7.05;;;5.53;;
43142;SDS011;28750;59.842;17.584;2023-07-02T19:17:01;5.90;;;5.30;;
43142;SDS011;28750;59.842;17.584;2023-07-02T19:19:31;6.40;;;5.05;;
43142;SDS011;28750;59.842;17.584;2023-07-02T19:21:59;7.43;;;5.65;;
43142;SDS011;28750;59.842;17.584;2023-07-02T19:24:26;5.75;;;5.00;;
43142;SDS011;28750;59.842;17.584;2023-07-02T19:26:54;8.13;;;5.57;;
43142;SDS011;28750;59.842;17.584;2023-07-02T19:29:22;7.20;;;5.60;;
43142;SDS011;28750;59.842;17.584;2023-07-02T19:31:50;8.98;;;5.57;;
43142;SDS011;28750;59.842;17.584;2023-07-02T19:34:18;6.07;;;5.07;;
43142;SDS011;28750;59.842;17.584;2023-07-02T19:36:47;6.18;;;5.57;;
43142;SDS011;28750;59.842;17.584;2023-07-02T19:39:15;6.68;;;6.07;;
43142;SDS011;28750;59.842;17.584;2023-07-02T19:41:46;9.05;;;6.60;;
43142;SDS011;28750;59.842;17.584;2023-07-02T19:44:14;8.18;;;5.68;;
43142;SDS011;28750;59.842;17.584;2023-07-02T19:46:43;11.82;;;7.88;;
43142;SDS011;28750;59.842;17.584;2023-07-02T19:49:12;9.93;;;6.28;;
43142;SDS011;28750;59.842;17.584;2023-07-02T19:51:41;7.47;;;6.63;;
43142;SDS011;28750;59.842;17.584;2023-07-02T19:54:13;6.75;;;5.95;;
43142;SDS011;28750;59.842;17.584;2023-07-02T19:56:42;6.93;;;6.22;;
43142;SDS011;28750;59.842;17.584;2023-07-02T19:59:10;6.55;;;5.88;;
43142;SDS011;28750;59.842;17.584;2023-07-02T20:01:38;9.23;;;6.63;;
43142;SDS011;28750;59.842;17.584;2023-07-02T20:04:07;8.88;;;7.05;;
43142;SDS011;28750;59.842;17.584;2023-07-02T20:06:47;8.40;;;5.90;;
43142;SDS011;28750;59.842;17.584;2023-07-02T20:09:14;7.35;;;6.25;;
43142;SDS011;28750;59.842;17.584;2023-07-02T20:11:41;7.82;;;6.18;;
43142;SDS011;28750;59.842;17.584;2023-07-02T20:14:08;11.18;;;5.82;;
43142;SDS011;28750;59.842;17.584;2023-07-02T20:16:35;6.50;;;5.75;;
43142;SDS011;28750;59.842;17.584;2023-07-02T20:19:03;7.80;;;6.85;;
43142;SDS011;28750;59.842;17.584;2023-07-02T20:21:30;10.32;;;5.95;;
43142;SDS011;28750;59.842;17.584;2023-07-02T20:23:57;7.65;;;5.90;;
43142;SDS011;28750;59.842;17.584;2023-07-02T20:26:25;8.05;;;6.78;;
43142;SDS011;28750;59.842;17.584;2023-07-02T20:28:52;8.65;;;6.65;;
43142;SDS011;28750;59.842;17.584;2023-07-02T20:31:19;8.95;;;6.28;;
43142;SDS011;28750;59.842;17.584;2023-07-02T20:33:47;16.65;;;6.82;;
43142;SDS011;28750;59.842;17.584;2023-07-02T20:36:14;11.13;;;7.50;;
43142;SDS011;28750;59.842;17.584;2023-07-02T20:38:42;8.88;;;6.28;;
43142;SDS011;28750;59.842;17.584;2023-07-02T20:41:09;8.00;;;5.45;;
43142;SDS011;28750;59.842;17.584;2023-07-02T20:43:37;12.07;;;6.85;;
43142;SDS011;28750;59.842;17.584;2023-07-02T20:46:11;9.88;;;7.88;;
43142;SDS011;28750;59.842;17.584;2023-07-02T20:48:38;10.20;;;7.18;;
43142;SDS011;28750;59.842;17.584;2023-07-02T20:51:08;9.57;;;6.57;;
43142;SDS011;28750;59.842;17.584;2023-07-02T20:53:36;10.48;;;7.00;;
43142;SDS011;28750;59.842;17.584;2023-07-02T20:56:03;13.30;;;8.13;;
43142;SDS011;28750;59.842;17.584;2023-07-02T20:58:31;8.70;;;7.80;;
43142;SDS011;28750;59.842;17.584;2023-07-02T21:01:05;7.15;;;6.32;;
43142;SDS011;28750;59.842;17.584;2023-07-02T21:03:34;9.98;;;7.10;;
43142;SDS011;28750;59.842;17.584;2023-07-02T21:06:05;13.02;;;7.70;;
43142;SDS011;28750;59.842;17.584;2023-07-02T21:08:37;9.63;;;7.32;;
43142;SDS011;28750;59.842;17.584;2023-07-02T21:11:04;12.43;;;8.38;;
43142;SDS011;28750;59.842;17.584;2023-07-02T21:13:33;11.27;;;8.07;;
43142;SDS011;28750;59.842;17.584;2023-07-02T21:16:00;13.02;;;7.72;;
43142;SDS011;28750;59.842;17.584;2023-07-02T21:18:27;9.70;;;6.60;;
43142;SDS011;28750;59.842;17.584;2023-07-02T21:20:55;13.63;;;8.70;;
43142;SDS011;28750;59.842;17.584;2023-07-02T21:23:22;13.60;;;8.55;;
43142;SDS011;28750;59.842;17.584;2023-07-02T21:25:56;10.77;;;6.80;;
43142;SDS011;28750;59.842;17.584;2023-07-02T21:28:24;8.35;;;6.82;;
43142;SDS011;28750;59.842;17.584;2023-07-02T21:30:52;11.77;;;7.40;;
43142;SDS011;28750;59.842;17.584;2023-07-02T21:33:19;9.40;;;6.43;;
43142;SDS011;28750;59.842;17.584;2023-07-02T21:35:47;9.27;;;6.32;;
43142;SDS011;28750;59.842;17.584;2023-07-02T21:38:15;8.90;;;7.00;;
43142;SDS011;28750;59.842;17.584;2023-07-02T21:40:42;10.77;;;7.40;;
43142;SDS011;28750;59.842;17.584;2023-07-02T21:43:09;12.60;;;7.65;;
43142;SDS011;28750;59.842;17.584;2023-07-02T21:45:37;9.27;;;6.93;;
43142;SDS011;28750;59.842;17.584;2023-07-02T21:48:04;9.70;;;6.75;;
43142;SDS011;28750;59.842;17.584;2023-07-02T21:50:31;9.18;;;6.70;;
43142;SDS011;28750;59.842;17.584;2023-07-02T21:52:59;11.15;;;7.80;;
43142;SDS011;28750;59.842;17.584;2023-07-02T21:55:26;8.85;;;6.07;;
43142;SDS011;28750;59.842;17.584;2023-07-02T21:57:53;7.25;;;6.43;;
43142;SDS011;28750;59.842;17.584;2023-07-02T22:00:21;14.82;;;8.75;;
43142;SDS011;28750;59.842;17.584;2023-07-02T22:02:48;11.02;;;8.18;;
43142;SDS011;28750;59.842;17.584;2023-07-02T22:05:15;10.88;;;7.97;;
43142;SDS011;28750;59.842;17.584;2023-07-02T22:07:42;13.02;;;7.90;;
43142;SDS011;28750;59.842;17.584;2023-07-02T22:10:10;12.88;;;8.13;;
43142;SDS011;28750;59.842;17.584;2023-07-02T22:12:39;12.35;;;7.60;;
43142;SDS011;28750;59.842;17.584;2023-07-02T22:15:06;10.60;;;7.22;;
43142;SDS011;28750;59.842;17.584;2023-07-02T22:17:34;11.55;;;7.85;;
43142;SDS011;28750;59.842;17.584;2023-07-02T22:20:03;8.82;;;6.50;;
43142;SDS011;28750;59.842;17.584;2023-07-02T22:22:36;9.63;;;6.65;;
43142;SDS011;28750;59.842;17.584;2023-07-02T22:27:35;11.52;;;6.57;;
43142;SDS011;28750;59.842;17.584;2023-07-02T22:30:04;10.38;;;7.07;;
43142;SDS011;28750;59.842;17.584;2023-07-02T22:32:33;13.43;;;8.00;;
43142;SDS011;28750;59.842;17.584;2023-07-02T22:35:02;10.02;;;6.70;;
43142;SDS011;28750;59.842;17.584;2023-07-02T22:37:30;7.72;;;5.93;;
43142;SDS011;28750;59.842;17.584;2023-07-02T22:39:58;9.88;;;7.50;;
43142;SDS011;28750;59.842;17.584;2023-07-02T22:42:30;10.50;;;6.35;;
43142;SDS011;28750;59.842;17.584;2023-07-02T22:44:58;10.50;;;6.63;;
43142;SDS011;28750;59.842;17.584;2023-07-02T22:47:26;7.63;;;6.35;;
43142;SDS011;28750;59.842;17.584;2023-07-02T22:49:53;9.25;;;7.25;;
43142;SDS011;28750;59.842;17.584;2023-07-02T22:52:20;8.30;;;6.40;;
43142;SDS011;28750;59.842;17.584;2023-07-02T22:54:53;13.95;;;8.00;;
43142;SDS011;28750;59.842;17.584;2023-07-02T22:57:21;12.27;;;7.00;;
43142;SDS011;28750;59.842;17.584;2023-07-02T22:59:49;9.23;;;6.25;;
43142;SDS011;28750;59.842;17.584;2023-07-02T23:02:17;10.48;;;6.63;;
43142;SDS011;28750;59.842;17.584;2023-07-02T23:04:45;8.05;;;6.28;;
43142;SDS011;28750;59.842;17.584;2023-07-02T23:07:12;9.25;;;6.13;;
43142;SDS011;28750;59.842;17.584;2023-07-02T23:09:40;6.97;;;5.35;;
43142;SDS011;28750;59.842;17.584;2023-07-02T23:12:07;7.78;;;5.28;;
43142;SDS011;28750;59.842;17.584;2023-07-02T23:14:35;10.65;;;6.22;;
43142;SDS011;28750;59.842;17.584;2023-07-02T23:17:02;10.80;;;6.18;;
43142;SDS011;28750;59.842;17.584;2023-07-02T23:19:29;10.18;;;6.55;;
43142;SDS011;28750;59.842;17.584;2023-07-02T23:21:58;9.35;;;5.57;;
43142;SDS011;28750;59.842;17.584;2023-07-02T23:24:26;13.35;;;6.40;;
43142;SDS011;28750;59.842;17.584;2023-07-02T23:26:54;9.63;;;5.72;;
43142;SDS011;28750;59.842;17.584;2023-07-02T23:29:21;6.85;;;5.55;;
43142;SDS011;28750;59.842;17.584;2023-07-02T23:31:50;9.98;;;6.75;;
43142;SDS011;28750;59.842;17.584;2023-07-02T23:34:17;12.30;;;7.68;;
43142;SDS011;28750;59.842;17.584;2023-07-02T23:36:45;8.23;;;6.65;;
43142;SDS011;28750;59.842;17.584;2023-07-02T23:39:12;10.30;;;5.55;;
43142;SDS011;28750;59.842;17.584;2023-07-02T23:41:40;8.13;;;5.35;;
43142;SDS011;28750;59.842;17.584;2023-07-02T23:44:08;9.55;;;6.90;;
43142;SDS011;28750;59.842;17.584;2023-07-02T23:46:36;9.30;;;6.07;;
43142;SDS011;28750;59.842;17.584;2023-07-02T23:49:04;9.93;;;7.18;;
43142;SDS011;28750;59.842;17.584;2023-07-02T23:51:31;8.10;;;5.90;;
43142;SDS011;28750;59.842;17.584;2023-07-02T23:54:00;12.60;;;6.65;;
43142;SDS011;28750;59.842;17.584;2023-07-02T23:56:27;7.32;;;5.45;;
43142;SDS011;28750;59.842;17.584;2023-07-02T23:58:54;6.28;;;4.97;;
